CheckWX is a tool to help pilots better visualize weather data.  It is not intended as a substitute for an official pre-flight weather briefing.

10:38:48 UTC

ETIK METAR
Illesheim Air Base Heliport
Storck Barracks, Germany
Current

43 mins ago

ETIK 160956Z AUTO 28006KT 9999 CLR 19/10 A3007 RMK AO2 SLP178 T01870103 $
Observed
Jul-16 @ 09:56 UTC
Wind
  • 280° at 6 KTS
Visibility
10,000+ meters
Flight Rules
VFR
Cloud Levels
  • Clear skies
Temperature
19°C / 66°F
Dewpoint
10°C / 50°F
Humidity
56%
Altimeter
30.07" Hg
Pressure
1018.32 hPa
Previous

43 mins ago

ETIK 160956Z AUTO 28006KT 9999 CLR 19/10 A3007 RMK AO2 SLP178 T01870103
Observed
Jul-16 @ 09:56 UTC
Wind
  • 280° at 6 KTS
Visibility
10,000+ meters
Flight Rules
VFR
Cloud Levels
  • Clear skies
Temperature
19°C / 66°F
Dewpoint
10°C / 50°F
Humidity
56%
Altimeter
30.07" Hg
Pressure
1018.32 hPa
Previous

2 hours ago

ETIK 160856Z AUTO 31005KT 9999 SCT027 17/11 A3008 RMK AO2 SLP184 T01740107 57003 $
Observed
Jul-16 @ 08:56 UTC
Wind
  • 310° at 5 KTS
Visibility
10,000+ meters
Flight Rules
VFR
Cloud Levels
  • Scattered at 2,700' AGL
Temperature
17°C / 63°F
Dewpoint
11°C / 52°F
Humidity
68%
Altimeter
30.08" Hg
Pressure
1018.62 hPa